createdAt,value
2018-12-23T00:01:45.329Z,2.02
2018-12-23T00:04:14.128Z,4.08
2018-12-23T00:06:42.815Z,2.17
2018-12-23T00:09:11.869Z,1.90
2018-12-23T00:11:40.657Z,2.60
2018-12-23T00:14:09.413Z,2.33
2018-12-23T00:16:38.170Z,2.35
2018-12-23T00:19:08.646Z,2.30
2018-12-23T00:21:37.615Z,1.70
2018-12-23T00:24:06.320Z,3.58
2018-12-23T00:26:35.061Z,2.50
2018-12-23T00:29:05.807Z,2.17
2018-12-23T00:31:34.686Z,2.80
2018-12-23T00:34:03.625Z,2.35
2018-12-23T00:36:32.372Z,2.50
2018-12-23T00:39:01.145Z,2.12
2018-12-23T00:41:30.129Z,2.35
2018-12-23T00:43:58.827Z,2.10
2018-12-23T00:46:27.584Z,2.10
2018-12-23T00:48:56.375Z,2.15
2018-12-23T00:51:25.061Z,1.82
2018-12-23T00:53:53.875Z,2.08
2018-12-23T00:56:22.662Z,1.00
2018-12-23T00:58:51.358Z,2.58
2018-12-23T01:01:20.550Z,2.90
2018-12-23T01:03:49.227Z,3.08
2018-12-23T01:06:18.002Z,2.42
2018-12-23T01:08:46.703Z,2.40
2018-12-23T01:11:17.518Z,2.60
2018-12-23T01:13:47.865Z,2.05
2018-12-23T01:16:17.656Z,2.00
2018-12-23T01:18:46.407Z,2.35
2018-12-23T01:21:15.173Z,1.67
2018-12-23T01:23:43.873Z,2.10
2018-12-23T01:26:12.626Z,1.47
2018-12-23T01:28:41.418Z,1.45
2018-12-23T01:31:10.194Z,2.35
2018-12-23T01:33:38.904Z,2.55
2018-12-23T01:36:09.451Z,1.70
2018-12-23T01:38:38.197Z,1.75
2018-12-23T01:41:06.990Z,1.32
2018-12-23T01:43:35.687Z,1.98
2018-12-23T01:46:05.376Z,1.90
2018-12-23T01:48:34.153Z,2.80
2018-12-23T01:51:02.935Z,2.17
2018-12-23T01:53:31.645Z,1.70
2018-12-23T01:56:00.432Z,1.70
2018-12-23T01:58:29.097Z,1.70
2018-12-23T02:00:57.985Z,2.12
2018-12-23T02:03:28.519Z,2.00
2018-12-23T02:05:57.318Z,1.57
2018-12-23T02:08:26.053Z,1.77
2018-12-23T02:10:54.893Z,2.33
2018-12-23T02:13:23.549Z,1.60
2018-12-23T02:15:52.388Z,2.17
2018-12-23T02:18:21.258Z,2.37
2018-12-23T02:20:50.048Z,2.60
2018-12-23T02:23:18.875Z,2.75
2018-12-23T02:25:47.658Z,2.27
2018-12-23T02:28:16.343Z,1.55
2018-12-23T02:30:45.153Z,1.75
2018-12-23T02:33:13.873Z,2.22
2018-12-23T02:35:42.644Z,2.22
2018-12-23T02:38:11.414Z,2.05
2018-12-23T02:40:40.163Z,2.08
2018-12-23T02:43:08.948Z,2.50
2018-12-23T02:45:37.817Z,1.90
2018-12-23T02:48:07.273Z,1.80
2018-12-23T02:50:36.724Z,2.87
2018-12-23T02:53:05.636Z,2.40
2018-12-23T02:55:34.362Z,1.85
2018-12-23T02:58:03.393Z,2.08
2018-12-23T03:00:32.063Z,2.25
2018-12-23T03:03:01.011Z,2.15
2018-12-23T03:05:29.757Z,2.52
2018-12-23T03:07:58.408Z,2.62
2018-12-23T03:10:28.646Z,1.42
2018-12-23T03:12:57.410Z,2.20
2018-12-23T03:15:26.239Z,1.25
2018-12-23T03:17:55.041Z,2.05
2018-12-23T03:20:23.915Z,2.05
2018-12-23T03:22:52.701Z,1.70
2018-12-23T03:25:21.476Z,2.75
2018-12-23T03:27:50.219Z,1.82
2018-12-23T03:30:18.917Z,1.70
2018-12-23T03:32:47.750Z,1.75
2018-12-23T03:35:16.542Z,4.22
2018-12-23T03:37:45.428Z,1.95
2018-12-23T03:40:14.172Z,1.35
2018-12-23T03:42:43.013Z,1.50
2018-12-23T03:45:11.695Z,2.12
2018-12-23T03:47:40.474Z,1.80
2018-12-23T03:50:09.367Z,1.37
2018-12-23T03:52:38.067Z,1.77
2018-12-23T03:55:08.337Z,2.12
2018-12-23T03:57:37.042Z,3.58
2018-12-23T04:00:06.675Z,1.60
2018-12-23T04:02:35.441Z,1.92
2018-12-23T04:05:05.357Z,1.95
2018-12-23T04:07:34.135Z,2.15
2018-12-23T04:10:02.937Z,4.12
2018-12-23T04:12:31.629Z,1.90
2018-12-23T04:15:00.322Z,2.05
2018-12-23T04:17:29.022Z,3.08
2018-12-23T04:19:57.795Z,2.60
2018-12-23T04:22:26.661Z,2.52
2018-12-23T04:24:55.359Z,2.52
2018-12-23T04:27:24.156Z,2.02
2018-12-23T04:29:52.936Z,3.37
2018-12-23T04:32:21.696Z,3.75
2018-12-23T04:34:50.405Z,2.10
2018-12-23T04:37:19.092Z,3.10
2018-12-23T04:39:47.881Z,3.20
2018-12-23T04:42:16.573Z,3.75
2018-12-23T04:44:45.458Z,2.55
2018-12-23T04:47:14.109Z,2.25
2018-12-23T04:49:42.828Z,3.27
2018-12-23T04:52:11.923Z,2.95
2018-12-23T04:54:40.564Z,2.77
2018-12-23T04:57:09.395Z,2.50
2018-12-23T04:59:38.667Z,2.12
2018-12-23T05:02:07.380Z,3.25
2018-12-23T05:04:36.143Z,2.80
2018-12-23T05:07:04.846Z,2.85
2018-12-23T05:09:33.539Z,2.72
2018-12-23T05:12:02.325Z,2.60
2018-12-23T05:14:32.053Z,2.50
2018-12-23T05:17:01.950Z,4.22
2018-12-23T05:19:30.592Z,4.22
2018-12-23T05:21:59.598Z,3.95
2018-12-23T05:24:28.416Z,2.20
2018-12-23T05:26:57.064Z,4.20
2018-12-23T05:29:25.753Z,3.15
2018-12-23T05:31:54.603Z,3.52
2018-12-23T05:34:23.464Z,3.30
2018-12-23T05:36:52.815Z,2.20
2018-12-23T05:39:21.612Z,3.15
2018-12-23T05:41:50.313Z,2.47
2018-12-23T05:44:19.075Z,3.95
2018-12-23T05:46:47.890Z,2.50
2018-12-23T05:49:16.686Z,2.95
2018-12-23T05:51:45.371Z,2.70
2018-12-23T05:54:14.082Z,4.87
2018-12-23T05:56:42.765Z,3.92
2018-12-23T05:59:11.469Z,2.90
2018-12-23T06:01:40.222Z,3.87
2018-12-23T06:04:08.971Z,3.33
2018-12-23T06:06:37.668Z,3.47
2018-12-23T06:09:07.192Z,5.28
2018-12-23T06:11:36.017Z,3.27
2018-12-23T06:14:04.717Z,3.00
2018-12-23T06:16:33.466Z,4.60
2018-12-23T06:19:02.219Z,3.75
2018-12-23T06:21:31.556Z,3.42
2018-12-23T06:24:00.286Z,2.75
2018-12-23T06:26:29.034Z,2.90
2018-12-23T06:28:57.785Z,3.67
2018-12-23T06:31:26.497Z,2.67
2018-12-23T06:33:55.162Z,2.65
2018-12-23T06:36:23.971Z,3.58
2018-12-23T06:38:52.698Z,3.83
2018-12-23T06:41:21.409Z,4.60
2018-12-23T06:43:50.127Z,2.95
2018-12-23T06:46:18.868Z,4.72
2018-12-23T06:48:47.575Z,4.35
2018-12-23T06:51:16.767Z,3.77
2018-12-23T06:53:45.527Z,3.55
2018-12-23T06:56:14.278Z,4.45
2018-12-23T06:58:42.959Z,3.35
2018-12-23T07:01:11.657Z,4.70
2018-12-23T07:03:41.289Z,3.52
2018-12-23T07:06:10.549Z,3.77
2018-12-23T07:08:39.234Z,4.20
2018-12-23T07:11:07.923Z,4.55
2018-12-23T07:13:36.610Z,4.28
2018-12-23T07:16:05.433Z,4.62
2018-12-23T07:18:34.124Z,3.30
2018-12-23T07:21:02.806Z,3.10
2018-12-23T07:23:31.539Z,2.85
2018-12-23T07:26:00.281Z,5.05
2018-12-23T07:28:32.280Z,2.52
2018-12-23T07:31:01.008Z,3.47
2018-12-23T07:33:29.707Z,4.20
2018-12-23T07:35:58.402Z,3.17
2018-12-23T07:38:27.107Z,2.45
2018-12-23T07:40:55.869Z,2.83
2018-12-23T07:43:24.697Z,1.98
2018-12-23T07:45:54.018Z,2.33
2018-12-23T07:48:22.742Z,3.08
2018-12-23T07:50:53.656Z,3.72
2018-12-23T07:53:22.207Z,2.60
2018-12-23T07:55:51.011Z,3.20
2018-12-23T07:58:19.770Z,2.50
2018-12-23T08:00:48.499Z,2.62
2018-12-23T08:03:17.415Z,2.62
2018-12-23T08:05:46.248Z,2.92
2018-12-23T08:08:15.003Z,2.72
2018-12-23T08:10:43.753Z,3.17
2018-12-23T08:13:12.443Z,3.40
2018-12-23T08:15:41.217Z,3.75
2018-12-23T08:18:10.015Z,3.10
2018-12-23T08:20:38.785Z,2.92
2018-12-23T08:23:07.494Z,3.08
2018-12-23T08:25:36.276Z,3.80
2018-12-23T08:28:05.054Z,2.85
2018-12-23T08:30:33.749Z,4.35
2018-12-23T08:33:02.737Z,2.50
2018-12-23T08:35:31.535Z,3.30
2018-12-23T08:38:01.229Z,3.05
2018-12-23T08:40:30.065Z,3.25
2018-12-23T08:42:58.783Z,2.98
2018-12-23T08:45:27.629Z,2.67
2018-12-23T08:47:56.331Z,3.65
2018-12-23T08:50:25.165Z,3.98
2018-12-23T08:52:53.886Z,4.87
2018-12-23T08:55:22.631Z,3.00
2018-12-23T08:57:51.429Z,3.17
2018-12-23T09:00:20.198Z,2.87
2018-12-23T09:02:49.101Z,3.15
2018-12-23T09:05:17.848Z,3.85
2018-12-23T09:07:52.940Z,3.20
2018-12-23T09:10:18.474Z,3.33
2018-12-23T09:12:47.343Z,4.62
2018-12-23T09:15:16.206Z,5.87
2018-12-23T09:17:44.987Z,5.15
2018-12-23T09:20:13.741Z,3.52
2018-12-23T09:22:42.571Z,4.80
2018-12-23T09:25:11.315Z,2.80
2018-12-23T09:27:40.102Z,2.80
2018-12-23T09:30:08.896Z,3.47
2018-12-23T09:32:37.593Z,2.22
2018-12-23T09:35:06.378Z,3.10
2018-12-23T09:37:35.093Z,3.75
2018-12-23T09:40:03.859Z,2.22
2018-12-23T09:42:32.689Z,3.45
2018-12-23T09:45:01.387Z,3.33
2018-12-23T09:47:30.240Z,2.42
2018-12-23T09:49:59.009Z,2.30
2018-12-23T09:52:27.716Z,4.00
2018-12-23T09:54:56.423Z,2.90
2018-12-23T09:57:25.194Z,2.25
2018-12-23T09:59:53.886Z,3.42
2018-12-23T10:02:22.740Z,3.42
2018-12-23T10:04:51.554Z,5.12
2018-12-23T10:07:20.221Z,3.52
2018-12-23T10:09:48.949Z,5.28
2018-12-23T10:12:17.790Z,3.05
2018-12-23T10:14:46.596Z,3.12
2018-12-23T10:17:15.284Z,3.02
2018-12-23T10:19:44.172Z,3.22
2018-12-23T10:22:12.863Z,2.80
2018-12-23T10:24:41.556Z,3.33
2018-12-23T10:27:11.484Z,2.75
2018-12-23T10:29:40.451Z,3.62
2018-12-23T10:32:09.846Z,3.72
2018-12-23T10:34:38.642Z,3.83
2018-12-23T10:37:07.399Z,3.72
2018-12-23T10:39:36.223Z,3.85
2018-12-23T10:42:05.103Z,3.55
2018-12-23T10:44:34.618Z,3.75
2018-12-23T10:47:03.325Z,3.90
2018-12-23T10:49:32.151Z,3.65
2018-12-23T10:52:03.056Z,3.70
2018-12-23T10:54:31.825Z,3.55
2018-12-23T10:57:00.605Z,2.70
2018-12-23T10:59:30.418Z,2.27
2018-12-23T11:01:59.100Z,3.80
2018-12-23T11:04:27.792Z,2.65
2018-12-23T11:07:32.344Z,5.22
2018-12-23T11:10:02.704Z,3.40
2018-12-23T11:12:32.951Z,3.15
2018-12-23T11:15:03.050Z,2.75
2018-12-23T11:17:33.174Z,2.70
2018-12-23T11:20:03.226Z,3.75
2018-12-23T11:22:33.308Z,3.35
2018-12-23T11:25:03.366Z,4.47
2018-12-23T11:27:38.454Z,3.83
2018-12-23T11:30:11.268Z,4.20
2018-12-23T11:32:41.338Z,3.62
2018-12-23T11:35:11.487Z,2.92
2018-12-23T11:37:44.018Z,3.10
2018-12-23T11:40:14.092Z,2.92
2018-12-23T11:42:44.154Z,2.15
2018-12-23T11:45:14.234Z,2.98
2018-12-23T11:47:45.270Z,2.87
2018-12-23T11:50:15.353Z,2.27
2018-12-23T11:52:48.274Z,3.35
2018-12-23T11:55:18.360Z,2.30
2018-12-23T11:57:48.409Z,2.45
2018-12-23T12:00:18.525Z,2.90
2018-12-23T12:02:48.560Z,3.08
2018-12-23T12:05:18.624Z,3.60
2018-12-23T12:07:48.674Z,3.92
2018-12-23T12:10:21.388Z,3.25
2018-12-23T12:12:51.558Z,2.25
2018-12-23T12:15:21.672Z,3.10
2018-12-23T12:17:51.769Z,3.87
2018-12-23T12:20:24.858Z,4.25
2018-12-23T12:22:54.902Z,3.27
2018-12-23T12:25:24.960Z,3.75
2018-12-23T12:27:54.988Z,2.47
2018-12-23T12:30:25.039Z,2.70
2018-12-23T12:32:55.091Z,3.52
2018-12-23T12:35:25.129Z,3.15
2018-12-23T12:37:55.246Z,3.98
2018-12-23T12:40:25.311Z,3.55
2018-12-23T12:42:55.351Z,3.52
2018-12-23T12:45:25.393Z,3.22
2018-12-23T12:47:57.366Z,2.47
2018-12-23T12:50:27.605Z,3.35
2018-12-23T12:52:57.692Z,2.45
2018-12-23T12:55:27.739Z,2.55
2018-12-23T12:57:57.806Z,4.08
2018-12-23T13:00:27.874Z,3.77
2018-12-23T13:02:57.935Z,3.05
2018-12-23T13:05:27.978Z,3.92
2018-12-23T13:07:59.448Z,3.45
2018-12-23T13:10:29.497Z,2.70
2018-12-23T13:12:59.622Z,4.00
2018-12-23T13:15:29.665Z,2.67
2018-12-23T13:17:59.722Z,3.02
2018-12-23T13:20:29.774Z,3.40
2018-12-23T13:22:59.907Z,3.37
2018-12-23T13:25:30.019Z,3.22
2018-12-23T13:28:00.140Z,2.80
2018-12-23T13:30:30.272Z,2.67
2018-12-23T13:33:00.418Z,3.58
2018-12-23T13:35:30.475Z,3.30
2018-12-23T13:38:00.522Z,3.75
2018-12-23T13:41:07.928Z,3.87
2018-12-23T13:44:14.353Z,2.75
2018-12-23T13:47:16.575Z,4.10
2018-12-23T13:50:31.624Z,2.75
2018-12-23T13:53:36.586Z,2.52
2018-12-23T13:56:49.742Z,2.10
2018-12-23T13:59:49.614Z,3.27
2018-12-23T14:02:51.131Z,2.77
2018-12-23T14:05:57.425Z,2.50
2018-12-23T14:08:52.381Z,2.08
2018-12-23T14:11:58.586Z,2.62
2018-12-23T14:14:28.628Z,2.90
2018-12-23T14:16:58.664Z,2.58
2018-12-23T14:19:28.816Z,2.80
2018-12-23T14:21:58.982Z,4.58
2018-12-23T14:24:29.008Z,3.25
2018-12-23T14:27:00.558Z,2.58
2018-12-23T14:29:30.676Z,1.70
2018-12-23T14:32:00.711Z,2.35
2018-12-23T14:34:30.812Z,3.22
2018-12-23T14:37:00.918Z,2.27
2018-12-23T14:39:32.719Z,3.50
2018-12-23T14:42:02.781Z,2.95
2018-12-23T14:44:32.850Z,2.92
2018-12-23T14:47:02.957Z,2.95
2018-12-23T14:49:33.016Z,2.27
2018-12-23T14:52:03.142Z,2.47
2018-12-23T14:54:33.194Z,1.80
2018-12-23T14:57:03.284Z,3.67
2018-12-23T14:59:33.414Z,2.30
2018-12-23T15:02:03.481Z,4.08
2018-12-23T15:04:33.627Z,2.20
2018-12-23T15:07:03.681Z,2.62
2018-12-23T15:09:34.339Z,3.30
2018-12-23T15:12:04.806Z,2.10
2018-12-23T15:14:37.609Z,2.27
2018-12-23T15:17:07.833Z,2.65
2018-12-23T15:19:38.032Z,2.35
2018-12-23T15:22:08.127Z,1.82
2018-12-23T15:24:38.219Z,2.45
2018-12-23T15:27:08.249Z,3.30
2018-12-23T15:29:38.304Z,2.75
2018-12-23T15:32:08.352Z,1.80
2018-12-23T15:34:38.410Z,2.40
2018-12-23T15:37:08.576Z,2.60
2018-12-23T15:39:42.567Z,2.50
2018-12-23T15:42:10.615Z,2.05
2018-12-23T15:44:40.648Z,2.47
2018-12-23T15:47:10.875Z,2.62
2018-12-23T15:49:40.996Z,3.02
2018-12-23T15:52:11.130Z,3.12
2018-12-23T15:54:46.345Z,2.62
2018-12-23T15:57:14.784Z,3.55
2018-12-23T15:59:44.846Z,3.50
2018-12-23T16:02:14.904Z,3.92
2018-12-23T16:04:45.020Z,2.75
2018-12-23T16:07:17.338Z,2.75
2018-12-23T16:09:51.100Z,2.55
2018-12-23T16:12:19.313Z,2.77
2018-12-23T16:14:49.509Z,2.45
2018-12-23T16:17:19.655Z,2.70
2018-12-23T16:19:49.707Z,2.75
2018-12-23T16:22:19.838Z,2.20
2018-12-23T16:24:50.021Z,2.15
2018-12-23T16:27:21.124Z,1.55
2018-12-23T16:29:51.176Z,2.12
2018-12-23T16:32:21.230Z,2.00
2018-12-23T16:34:51.330Z,2.35
2018-12-23T16:37:21.389Z,1.82
2018-12-23T16:39:59.364Z,2.02
2018-12-23T16:42:23.220Z,1.52
2018-12-23T16:44:53.253Z,2.30
2018-12-23T16:47:23.357Z,1.95
2018-12-23T16:49:56.052Z,2.15
2018-12-23T16:52:26.106Z,2.72
2018-12-23T16:54:56.160Z,2.80
2018-12-23T16:57:26.288Z,2.98
2018-12-23T16:59:56.398Z,3.02
2018-12-23T17:02:26.448Z,4.08
2018-12-23T17:04:56.489Z,2.98
2018-12-23T17:07:28.832Z,2.12
2018-12-23T17:09:58.883Z,3.02
2018-12-23T17:12:28.937Z,3.35
2018-12-23T17:14:59.053Z,3.22
2018-12-23T17:17:29.195Z,2.17
2018-12-23T17:19:59.288Z,2.92
2018-12-23T17:22:29.433Z,2.90
2018-12-23T17:25:00.570Z,2.20
2018-12-23T17:27:31.737Z,2.92
2018-12-23T17:30:01.838Z,2.45
2018-12-23T17:32:31.963Z,2.87
2018-12-23T17:35:02.063Z,3.70
2018-12-23T17:37:32.175Z,4.37
2018-12-23T17:40:02.303Z,5.62
2018-12-23T17:42:32.340Z,4.00
2018-12-23T17:45:02.472Z,4.92
2018-12-23T17:47:32.529Z,5.60
2018-12-23T17:50:02.645Z,8.90
2018-12-23T17:52:32.685Z,8.95
2018-12-23T17:55:02.853Z,7.83
2018-12-23T17:57:32.953Z,7.33
2018-12-23T18:00:02.996Z,4.87
2018-12-23T18:02:33.066Z,5.67
2018-12-23T18:05:03.121Z,5.17
2018-12-23T18:07:33.214Z,6.20
2018-12-23T18:10:03.331Z,4.22
2018-12-23T18:12:33.414Z,4.00
2018-12-23T18:15:03.626Z,3.25
2018-12-23T18:17:35.987Z,4.40
2018-12-23T18:20:06.525Z,3.83
2018-12-23T18:22:36.587Z,4.05
2018-12-23T18:25:06.834Z,4.72
2018-12-23T18:27:38.744Z,4.78
2018-12-23T18:30:08.951Z,4.42
2018-12-23T18:32:39.029Z,4.80
2018-12-23T18:35:09.141Z,4.17
2018-12-23T18:37:39.184Z,3.47
2018-12-23T18:40:09.377Z,5.15
2018-12-23T18:42:41.037Z,4.55
2018-12-23T18:45:14.024Z,3.87
2018-12-23T18:47:44.044Z,4.17
2018-12-23T18:50:14.117Z,3.72
2018-12-23T18:52:44.147Z,3.98
2018-12-23T18:55:14.362Z,3.65
2018-12-23T18:57:46.622Z,3.12
2018-12-23T19:00:16.672Z,3.30
2018-12-23T19:02:53.050Z,4.50
2018-12-23T19:05:23.230Z,2.47
2018-12-23T19:07:56.424Z,3.12
2018-12-23T19:11:03.890Z,2.85
2018-12-23T19:14:21.125Z,4.95
2018-12-23T19:17:34.344Z,2.87
2018-12-23T19:20:45.228Z,2.67
2018-12-23T19:23:50.252Z,3.20
2018-12-23T19:26:46.510Z,2.90
2018-12-23T19:30:02.529Z,3.20
2018-12-23T19:33:12.970Z,3.10
2018-12-23T19:36:19.932Z,2.65
2018-12-23T19:39:35.827Z,2.70
2018-12-23T19:42:47.640Z,4.70
2018-12-23T19:45:37.183Z,2.85
2018-12-23T19:48:47.007Z,3.58
2018-12-23T19:51:53.611Z,2.50
2018-12-23T19:54:44.632Z,2.70
2018-12-23T19:57:43.574Z,2.08
2018-12-23T20:01:01.375Z,2.95
2018-12-23T20:04:07.885Z,3.00
2018-12-23T20:07:30.697Z,2.05
2018-12-23T20:10:45.384Z,2.65
2018-12-23T20:14:04.524Z,2.62
2018-12-23T20:17:03.243Z,2.87
2018-12-23T20:19:57.184Z,2.10
2018-12-23T20:23:03.543Z,1.82
2018-12-23T20:26:20.780Z,2.30
2018-12-23T20:29:47.368Z,2.10
2018-12-23T20:32:40.171Z,1.82
2018-12-23T20:35:55.202Z,1.62
2018-12-23T20:39:03.398Z,2.60
2018-12-23T20:42:01.171Z,2.00
2018-12-23T20:45:11.674Z,1.87
2018-12-23T20:48:05.820Z,1.60
2018-12-23T20:51:18.544Z,2.22
2018-12-23T20:54:17.246Z,1.87
2018-12-23T20:57:24.863Z,1.85
2018-12-23T21:00:32.403Z,1.62
2018-12-23T21:03:48.619Z,1.55
2018-12-23T21:06:58.308Z,1.60
2018-12-23T21:09:51.091Z,1.87
2018-12-23T21:12:47.156Z,2.85
2018-12-23T21:15:57.404Z,4.75
2018-12-23T21:19:15.599Z,4.70
2018-12-23T21:22:11.138Z,3.70
2018-12-23T21:25:13.337Z,1.55
2018-12-23T21:28:19.999Z,2.60
2018-12-23T21:31:21.583Z,2.22
2018-12-23T21:34:28.083Z,1.50
2018-12-23T21:37:35.698Z,1.92
2018-12-23T21:40:35.506Z,1.80
2018-12-23T21:43:36.721Z,2.30
2018-12-23T21:46:48.957Z,1.90
2018-12-23T21:49:55.208Z,1.90
2018-12-23T21:52:58.602Z,2.00
2018-12-23T21:56:22.244Z,1.98
2018-12-23T21:59:28.541Z,3.60
2018-12-23T22:02:40.124Z,3.17
2018-12-23T22:05:37.594Z,1.98
2018-12-23T22:08:52.455Z,1.87
2018-12-23T22:12:01.519Z,2.05
2018-12-23T22:14:31.706Z,2.15
2018-12-23T22:17:01.822Z,1.37
2018-12-23T22:19:31.881Z,1.80
2018-12-23T22:22:02.058Z,2.50
2018-12-23T22:24:32.110Z,1.82
2018-12-23T22:27:04.097Z,1.62
2018-12-23T22:29:34.152Z,2.05
2018-12-23T22:32:04.538Z,2.00
2018-12-23T22:34:34.601Z,1.95
2018-12-23T22:37:04.653Z,1.67
2018-12-23T22:39:34.735Z,2.00
2018-12-23T22:42:04.818Z,1.80
2018-12-23T22:44:34.936Z,2.75
2018-12-23T22:47:05.016Z,3.90
2018-12-23T22:49:35.077Z,3.08
2018-12-23T22:52:05.220Z,4.30
2018-12-23T22:54:35.320Z,4.30
2018-12-23T22:57:05.445Z,3.05
2018-12-23T22:59:35.805Z,2.70
2018-12-23T23:02:08.110Z,3.05
2018-12-23T23:04:38.272Z,3.52
2018-12-23T23:07:08.379Z,3.62
2018-12-23T23:09:40.136Z,3.85
2018-12-23T23:12:10.169Z,3.70
2018-12-23T23:14:40.476Z,4.28
2018-12-23T23:17:11.310Z,3.10
2018-12-23T23:19:41.345Z,3.15
2018-12-23T23:22:11.492Z,2.75
2018-12-23T23:24:44.277Z,2.22
2018-12-23T23:27:14.318Z,2.70
2018-12-23T23:29:50.444Z,2.40
2018-12-23T23:32:20.471Z,2.50
2018-12-23T23:34:50.572Z,3.00
2018-12-23T23:37:20.615Z,2.42
2018-12-23T23:39:50.658Z,3.10
2018-12-23T23:42:20.705Z,2.40
2018-12-23T23:44:50.740Z,2.17
2018-12-23T23:47:20.781Z,1.67
2018-12-23T23:49:50.837Z,3.15
2018-12-23T23:52:20.892Z,1.82
2018-12-23T23:54:50.930Z,1.98
2018-12-23T23:57:20.990Z,2.12
2018-12-23T23:59:51.075Z,2.80
